KANQ/ANQ METAR and TAF weather

Enter ICAO airport designator
Station Type Date Time Source
KANQ METAR 2022/12/10 01:35 UTC NOAA

KANQ 100135Z AUTO 07009G17KT 3SM BR OVC009 01/00 A3021 RMK AO2


Station Type Date Time Source
KANQ Decoded METAR 2022/12/10 01:35 UTC NOAA

Station name not available
Dec 09, 2022 - 08:35 PM EST / 2022.12.10 0135 UTC
Wind: from the ENE (070 degrees) at 10 MPH (9 KT) gusting to 20 MPH (17 KT):0
Visibility: 3 mile(s):0
Sky conditions: overcast
Weather: mist
Temperature: 33 F (1 C)
Windchill: 24 F (-4 C):1
Dew Point: 32 F (0 C)
Relative Humidity: 93%
Pressure (altimeter): 30.21 in. Hg (1023 hPa)
ob: KANQ 100135Z AUTO 07009G17KT 3SM BR OVC009 01/00 A3021 RMK AO2
cycle: 1

Station Type Date Time Source
KANQ TAF UTC NOAA

Error!

Example: see airport list